createdAt,value
2019-05-20T07:23:40.212Z,14.30
2019-05-20T07:24:40.251Z,13.80
2019-05-20T07:25:40.350Z,14.30
2019-05-20T07:26:40.286Z,13.80
2019-05-20T07:27:50.343Z,13.90
2019-05-20T07:35:40.665Z,13.85
2019-05-20T07:37:50.699Z,13.45
2019-05-20T07:44:40.822Z,13.90
2019-05-20T07:49:40.948Z,13.80
2019-05-20T07:51:40.975Z,13.00
2019-05-20T07:52:51.009Z,13.00
2019-05-20T07:54:41.054Z,13.30
2019-05-20T07:56:41.067Z,13.15
2019-05-20T07:57:51.078Z,13.10
2019-05-20T08:00:41.168Z,12.80
2019-05-20T08:02:51.164Z,12.65
2019-05-20T08:04:41.225Z,12.30
2019-05-20T08:05:41.224Z,12.20
2019-05-20T08:08:41.419Z,12.00
2019-05-20T08:11:51.491Z,12.10
2019-05-20T08:15:41.660Z,11.85
2019-05-20T08:18:41.696Z,11.70
2019-05-20T08:19:41.702Z,11.45
2019-05-20T08:30:52.206Z,10.90
2019-05-20T08:32:42.253Z,10.60
2019-05-20T08:34:42.380Z,10.85
2019-05-20T08:38:42.472Z,10.50
2019-05-20T08:40:52.496Z,10.30
2019-05-20T08:43:42.550Z,10.50
2019-05-20T08:44:42.566Z,9.80
2019-05-20T08:45:52.596Z,9.50
2019-05-20T08:47:22.679Z,9.90
2019-05-20T08:49:43.135Z,9.80
2019-05-20T08:52:42.763Z,9.90
2019-05-20T08:53:42.783Z,9.40
2019-05-20T08:54:42.855Z,9.30
2019-05-20T08:57:43.026Z,9.70
2019-05-20T08:59:43.040Z,9.50
2019-05-20T09:00:53.059Z,9.45
2019-05-20T09:02:23.121Z,9.40
2019-05-20T09:05:53.130Z,8.85
2019-05-20T09:10:53.238Z,9.20
2019-05-20T09:12:23.290Z,9.10
2019-05-20T09:15:53.337Z,8.80
2019-05-20T09:19:46.820Z,8.60
2019-05-20T09:25:53.497Z,8.30
2019-05-20T09:27:23.597Z,8.00
2019-05-20T09:29:33.715Z,8.20
2019-05-20T09:31:03.811Z,8.20
2019-05-20T09:32:43.839Z,8.10
2019-05-20T09:33:43.869Z,8.60
2019-05-20T09:34:33.886Z,8.00
2019-05-20T09:36:03.888Z,8.15
2019-05-20T09:38:17.597Z,7.60
2019-05-20T09:39:33.975Z,7.40
2019-05-20T09:40:33.972Z,7.50
2019-05-20T09:41:44.266Z,7.90
2019-05-20T09:42:54.026Z,7.50
2019-05-20T09:44:34.049Z,7.50
2019-05-20T09:45:34.036Z,7.30
2019-05-20T09:46:44.101Z,7.50
2019-05-20T09:47:54.116Z,7.50
2019-05-20T09:49:44.401Z,7.30
2019-05-20T09:50:34.293Z,7.20
2019-05-20T09:51:44.326Z,7.20
2019-05-20T09:52:54.336Z,7.20
2019-05-20T09:54:14.374Z,7.65
2019-05-20T09:55:24.423Z,7.30
2019-05-20T09:56:24.383Z,7.30
2019-05-20T09:57:44.405Z,7.15
2019-05-20T09:58:44.473Z,7.20
2019-05-20T09:59:44.426Z,7.40
2019-05-20T10:00:34.535Z,7.70
2019-05-20T10:01:34.448Z,7.35
2019-05-20T10:02:54.482Z,7.00
2019-05-20T10:05:24.561Z,6.85
2019-05-20T10:06:34.593Z,7.40
2019-05-20T10:07:44.606Z,7.20
2019-05-20T10:08:45.419Z,7.25
2019-05-20T10:09:44.692Z,7.10
2019-05-20T10:12:54.809Z,7.00
2019-05-20T10:14:24.807Z,6.80
2019-05-20T10:15:24.785Z,7.00
2019-05-20T10:16:24.803Z,6.80
2019-05-20T10:17:54.845Z,6.80
2019-05-20T10:19:44.864Z,6.80
2019-05-20T10:22:54.928Z,6.30
2019-05-20T10:27:45.089Z,6.60
2019-05-20T10:28:47.266Z,6.60
2019-05-20T10:29:25.132Z,6.10
2019-05-20T10:32:55.264Z,6.90
2019-05-20T10:35:45.235Z,6.40
2019-05-20T10:36:45.246Z,6.50
2019-05-20T10:37:55.266Z,6.60
2019-05-20T10:40:25.321Z,6.20
2019-05-20T10:41:25.349Z,6.10
2019-05-20T10:42:45.367Z,6.35
2019-05-20T10:45:25.449Z,6.20
2019-05-20T10:47:45.471Z,6.00
2019-05-20T10:48:45.511Z,6.30
2019-05-20T10:52:55.581Z,6.00
2019-05-20T10:56:25.658Z,6.20
2019-05-20T10:57:45.690Z,6.30
2019-05-20T10:59:25.785Z,6.00
2019-05-20T11:00:25.822Z,5.90
2019-05-20T11:02:45.810Z,6.20
2019-05-20T11:04:25.891Z,5.80
2019-05-20T11:07:45.990Z,6.00
2019-05-20T11:09:16.065Z,5.80
2019-05-20T11:12:56.160Z,5.50
2019-05-20T11:15:26.190Z,5.50
2019-05-20T11:16:26.197Z,5.40
2019-05-20T11:17:46.221Z,5.50
2019-05-20T11:19:16.268Z,5.60
2019-05-20T11:20:26.325Z,5.70
2019-05-20T11:21:26.360Z,5.50
2019-05-20T11:22:46.434Z,5.50
2019-05-20T11:25:26.489Z,5.65
2019-05-20T11:27:56.545Z,5.80
2019-05-20T11:29:26.570Z,5.90
2019-05-20T11:30:26.554Z,6.00
2019-05-20T11:31:26.574Z,5.60
2019-05-20T11:32:46.589Z,5.70
2019-05-20T11:34:26.609Z,5.50
2019-05-20T11:35:26.611Z,5.70
2019-05-20T11:36:26.633Z,5.70
2019-05-20T11:37:56.655Z,5.70
2019-05-20T11:39:31.200Z,5.10
2019-05-20T11:42:46.756Z,5.20
2019-05-20T11:45:26.784Z,5.40
2019-05-20T11:46:26.783Z,5.90
2019-05-20T11:47:56.824Z,6.00
2019-05-20T11:49:29.128Z,5.60
2019-05-20T11:51:26.876Z,5.30
2019-05-20T11:52:46.918Z,4.70
2019-05-20T11:54:26.931Z,5.20
2019-05-20T11:57:46.999Z,5.20
2019-05-20T11:59:17.000Z,5.70
2019-05-20T12:00:27.017Z,5.40
2019-05-20T12:01:27.061Z,5.20
2019-05-20T12:02:57.198Z,5.10
2019-05-20T12:04:27.237Z,5.00
2019-05-20T12:05:27.158Z,4.75
2019-05-20T12:06:27.273Z,4.90
2019-05-20T12:07:57.127Z,4.70
2019-05-20T12:09:27.176Z,4.85
2019-05-20T12:11:27.288Z,4.80
2019-05-20T12:12:47.438Z,4.60
2019-05-20T12:14:27.501Z,4.70
2019-05-20T12:15:27.481Z,5.00
2019-05-20T12:17:57.505Z,4.70
2019-05-20T12:19:17.536Z,5.00
2019-05-20T12:20:37.564Z,4.80
2019-05-20T12:21:27.609Z,4.80
2019-05-20T12:22:57.721Z,4.50
2019-05-20T12:25:27.623Z,4.75
2019-05-20T12:27:47.689Z,4.90
2019-05-20T12:32:47.799Z,5.60
2019-05-20T12:34:27.822Z,5.90
2019-05-20T12:37:57.896Z,6.00
2019-05-20T12:39:28.029Z,6.80
2019-05-20T12:40:27.923Z,6.50
2019-05-20T12:42:48.024Z,6.60
2019-05-20T12:46:28.084Z,6.60
2019-05-20T12:47:58.076Z,6.90
2019-05-20T12:49:28.218Z,7.20
2019-05-20T12:51:28.195Z,7.40
2019-05-20T12:52:48.206Z,7.50
2019-05-20T12:54:18.243Z,7.90
2019-05-20T12:56:28.302Z,7.30
2019-05-20T12:57:48.322Z,7.80
2019-05-20T13:01:28.603Z,7.50
2019-05-20T13:02:48.490Z,7.20
2019-05-20T13:04:18.497Z,7.10
2019-05-20T13:05:28.546Z,7.70
2019-05-20T13:06:28.613Z,7.30
2019-05-20T13:07:58.634Z,7.20
2019-05-20T13:11:28.714Z,7.00
2019-05-20T13:12:48.758Z,7.20
2019-05-20T13:14:18.755Z,6.60
2019-05-20T13:16:28.814Z,6.90
2019-05-20T13:17:48.843Z,7.10
2019-05-20T13:20:28.876Z,6.65
2019-05-20T13:21:28.938Z,7.10
2019-05-20T13:22:58.967Z,6.40
2019-05-20T13:24:29.017Z,6.90
2019-05-20T13:27:49.089Z,6.00
2019-05-20T13:29:29.111Z,6.40
2019-05-20T13:32:59.162Z,5.90
2019-05-20T13:34:19.165Z,6.40
2019-05-20T13:35:29.236Z,6.05
2019-05-20T13:36:29.215Z,6.10
2019-05-20T13:37:49.231Z,6.10
2019-05-20T13:39:29.248Z,6.15
2019-05-20T13:41:29.280Z,5.60
2019-05-20T13:45:29.489Z,5.80
2019-05-20T13:46:29.512Z,5.80
2019-05-20T13:50:30.613Z,5.80
2019-05-20T13:51:29.595Z,5.70
2019-05-20T13:53:49.656Z,5.50
2019-05-20T13:55:49.685Z,5.40
2019-05-20T13:56:59.700Z,5.20
2019-05-20T13:58:49.683Z,5.50
2019-05-20T14:00:29.696Z,5.30
2019-05-20T14:01:29.728Z,5.10
2019-05-20T14:04:29.779Z,5.00
2019-05-20T14:07:49.823Z,4.90
2019-05-20T14:11:34.383Z,4.80
2019-05-20T14:12:49.912Z,5.00
2019-05-20T14:14:29.965Z,5.10
2019-05-20T14:15:29.937Z,4.90
2019-05-20T14:16:29.975Z,5.10
2019-05-20T14:21:30.054Z,5.00
2019-05-20T14:22:50.068Z,4.75
2019-05-20T14:24:20.135Z,4.50
2019-05-20T14:25:30.118Z,4.80
2019-05-20T14:26:30.139Z,4.70
2019-05-20T14:29:30.257Z,4.70
2019-05-20T14:31:30.308Z,4.50
2019-05-20T14:38:00.392Z,4.55
2019-05-20T14:39:20.412Z,4.50
2019-05-20T14:42:50.471Z,4.25
2019-05-20T14:44:30.526Z,4.40
2019-05-20T14:46:30.528Z,4.30
2019-05-20T14:47:50.574Z,4.30
2019-05-20T14:49:30.591Z,4.30
2019-05-20T14:50:30.598Z,4.25
2019-05-20T14:51:30.622Z,4.00
2019-05-20T14:52:50.615Z,3.90
2019-05-20T14:56:30.672Z,4.20
2019-05-20T14:57:50.703Z,4.10
2019-05-20T14:59:30.707Z,4.30
2019-05-20T15:00:30.773Z,4.20
2019-05-20T15:04:30.786Z,4.00
2019-05-20T15:05:30.840Z,4.10
2019-05-20T15:06:30.810Z,4.10
2019-05-20T15:09:30.829Z,4.05
2019-05-20T15:10:30.867Z,4.10
2019-05-20T15:11:37.946Z,4.00
2019-05-20T15:14:31.004Z,3.80
2019-05-20T15:15:30.931Z,3.80
2019-05-20T15:16:30.939Z,3.80
2019-05-20T15:17:50.997Z,4.10
2019-05-20T15:19:31.034Z,3.90
2019-05-20T15:20:31.066Z,4.00
2019-05-20T15:22:51.198Z,3.80
2019-05-20T15:24:31.173Z,3.80
2019-05-20T15:25:31.157Z,3.90
2019-05-20T15:26:31.243Z,4.10
2019-05-20T15:27:51.292Z,3.70
2019-05-20T15:29:31.306Z,4.00
2019-05-20T15:30:31.314Z,3.70
2019-05-20T15:31:31.332Z,3.70
2019-05-20T15:32:54.535Z,3.80
2019-05-20T15:34:31.382Z,3.80
2019-05-20T15:35:31.423Z,3.80
2019-05-20T15:36:31.422Z,3.80
2019-05-20T15:39:31.482Z,3.90
2019-05-20T15:40:31.486Z,3.70
2019-05-20T15:47:51.718Z,3.70
2019-05-20T15:49:31.719Z,4.10
2019-05-20T15:50:31.729Z,3.70
2019-05-20T15:52:51.781Z,3.50
2019-05-20T15:54:31.808Z,3.50
2019-05-20T15:59:44.645Z,3.60
2019-05-20T16:00:31.943Z,3.80
2019-05-20T16:02:01.984Z,3.80
2019-05-20T16:03:32.007Z,3.60
2019-05-20T16:04:32.030Z,3.60
2019-05-20T16:06:52.151Z,3.50
2019-05-20T16:09:32.125Z,3.90
2019-05-20T16:10:32.163Z,3.50
2019-05-20T16:11:52.199Z,3.40
2019-05-20T16:13:22.220Z,3.80
2019-05-20T16:15:32.243Z,3.40
2019-05-20T16:16:52.259Z,3.50
2019-05-20T16:18:42.324Z,3.25
2019-05-20T16:19:32.298Z,3.50
2019-05-20T16:21:52.337Z,3.40
2019-05-20T16:25:32.432Z,3.50
2019-05-20T16:28:32.460Z,3.50
2019-05-20T16:30:32.490Z,3.40
2019-05-20T16:31:52.515Z,3.35
2019-05-20T16:33:32.533Z,3.40
2019-05-20T16:35:32.550Z,3.40
2019-05-20T16:36:32.648Z,3.60
2019-05-20T16:37:32.631Z,3.40
2019-05-20T16:39:32.640Z,3.50
2019-05-20T16:40:32.686Z,3.50
2019-05-20T16:45:32.763Z,3.40
2019-05-20T16:48:32.805Z,3.30
2019-05-20T16:49:32.819Z,3.25
2019-05-20T16:50:32.848Z,3.40
2019-05-20T16:51:52.843Z,3.10
2019-05-20T16:53:32.939Z,3.40
2019-05-20T16:55:22.956Z,3.30
2019-05-20T16:56:32.983Z,3.20
2019-05-20T16:58:32.992Z,3.00
2019-05-20T16:59:33.021Z,3.20
2019-05-20T17:03:33.061Z,3.20
2019-05-20T17:05:33.148Z,3.10
2019-05-20T17:06:53.211Z,3.20
2019-05-20T17:08:33.229Z,3.10
2019-05-20T17:09:33.269Z,3.10
2019-05-20T17:11:33.262Z,3.30
2019-05-20T17:13:33.314Z,3.10
2019-05-20T17:14:33.306Z,3.10
2019-05-20T17:15:33.343Z,3.20
2019-05-20T17:16:53.351Z,3.20
2019-05-20T17:19:33.445Z,2.90
2019-05-20T17:20:33.492Z,3.20
2019-05-20T17:23:33.657Z,3.20
2019-05-20T17:24:43.754Z,3.20
2019-05-20T17:25:33.711Z,3.00
2019-05-20T17:27:33.717Z,3.00
2019-05-20T17:28:23.718Z,3.10
2019-05-20T17:29:43.736Z,3.20
2019-05-20T17:30:44.721Z,3.20
2019-05-20T17:31:53.777Z,3.10
2019-05-20T17:33:33.791Z,3.10
2019-05-20T17:34:43.833Z,3.00
2019-05-20T17:35:33.837Z,3.30
2019-05-20T17:36:53.889Z,3.10
2019-05-20T17:38:33.877Z,3.00
2019-05-20T17:39:33.913Z,3.10
2019-05-20T17:40:33.933Z,2.90
2019-05-20T17:41:53.931Z,3.00
2019-05-20T17:43:23.961Z,2.95
2019-05-20T17:44:24.073Z,3.00
2019-05-20T17:45:34.015Z,3.20
2019-05-20T17:46:54.042Z,3.20
2019-05-20T17:48:44.110Z,3.00
2019-05-20T17:49:34.075Z,3.00
2019-05-20T17:50:44.118Z,3.20
2019-05-20T17:51:44.115Z,3.00
2019-05-20T17:52:44.132Z,3.00
2019-05-20T17:53:34.139Z,2.90
2019-05-20T17:54:34.289Z,3.10
2019-05-20T17:55:34.310Z,3.00
2019-05-20T17:56:44.290Z,3.00
2019-05-20T17:57:44.304Z,3.10
2019-05-20T17:58:37.134Z,3.00
2019-05-20T17:59:44.336Z,3.10
2019-05-20T18:00:34.351Z,3.00
2019-05-20T18:01:54.353Z,2.80
2019-05-20T18:04:34.382Z,3.00
2019-05-20T18:05:24.388Z,3.00
2019-05-20T18:06:44.458Z,3.20
2019-05-20T18:08:34.479Z,3.00
2019-05-20T18:11:54.530Z,3.00
2019-05-20T18:13:24.531Z,2.90
2019-05-20T18:14:24.548Z,2.90
2019-05-20T18:15:24.623Z,2.70
2019-05-20T18:18:34.625Z,3.20
2019-05-20T18:19:34.620Z,3.10
2019-05-20T18:20:34.615Z,3.10
2019-05-20T18:23:34.668Z,2.70
2019-05-20T18:24:34.682Z,2.80
2019-05-20T18:25:34.694Z,2.80
2019-05-20T18:27:04.704Z,3.00
2019-05-20T18:28:34.734Z,2.80
2019-05-20T18:29:34.748Z,2.80
2019-05-20T18:30:34.758Z,2.90
2019-05-20T18:33:34.893Z,2.90
2019-05-20T18:34:34.949Z,2.95
2019-05-20T18:37:04.978Z,2.70
2019-05-20T18:38:34.998Z,3.10
2019-05-20T18:39:35.005Z,2.90
2019-05-20T18:40:35.041Z,2.80
2019-05-20T18:41:55.041Z,2.90
2019-05-20T18:43:35.111Z,2.90
2019-05-20T18:44:35.128Z,2.90
2019-05-20T18:47:05.148Z,3.00
2019-05-20T18:50:35.185Z,2.80
2019-05-20T18:52:05.320Z,3.00
2019-05-20T18:53:25.336Z,2.80
2019-05-20T18:54:25.397Z,2.70
2019-05-20T18:55:25.412Z,2.80
2019-05-20T18:56:55.422Z,2.70
2019-05-20T18:58:25.447Z,2.70
2019-05-20T18:59:35.481Z,2.80
2019-05-20T19:00:35.527Z,2.75
2019-05-20T19:02:04.086Z,2.90
2019-05-20T19:04:35.559Z,2.60
2019-05-20T19:05:35.577Z,2.90
2019-05-20T19:07:35.606Z,2.80
2019-05-20T19:08:35.624Z,2.80
2019-05-20T19:10:35.681Z,2.60
2019-05-20T19:11:55.715Z,2.60
2019-05-20T19:14:35.756Z,2.60
2019-05-20T19:15:35.777Z,2.80
2019-05-20T19:17:35.890Z,2.80
2019-05-20T19:18:35.873Z,2.60
2019-05-20T19:19:35.872Z,2.90
2019-05-20T19:20:35.888Z,2.60
2019-05-20T19:25:37.937Z,2.80
2019-05-20T19:26:56.070Z,2.70
2019-05-20T19:28:36.106Z,2.80
2019-05-20T19:29:26.214Z,2.80
2019-05-20T19:30:36.241Z,2.80
2019-05-20T19:31:36.254Z,3.00
2019-05-20T19:32:36.277Z,2.90
2019-05-20T19:33:36.303Z,2.50
2019-05-20T19:34:36.329Z,2.70
2019-05-20T19:35:36.332Z,2.70
2019-05-20T19:36:56.397Z,2.70
2019-05-20T19:38:36.448Z,2.60
2019-05-20T19:41:36.562Z,2.60
2019-05-20T19:42:36.556Z,2.70
2019-05-20T19:43:36.566Z,3.00
2019-05-20T19:44:36.604Z,3.10
2019-05-20T19:45:26.589Z,3.30
2019-05-20T19:47:36.630Z,2.90
2019-05-20T19:48:36.642Z,2.90
2019-05-20T19:49:36.709Z,2.80
2019-05-20T19:50:36.708Z,2.90
2019-05-20T19:53:36.784Z,2.80
2019-05-20T19:54:26.774Z,2.90
2019-05-20T19:55:26.779Z,2.60
2019-05-20T19:56:36.851Z,3.10
2019-05-20T19:57:26.879Z,3.20
2019-05-20T19:58:26.871Z,3.40
2019-05-20T19:59:26.888Z,3.30
2019-05-20T20:00:36.927Z,3.30
2019-05-20T20:02:36.963Z,3.25
2019-05-20T20:03:36.966Z,3.50
2019-05-20T20:04:36.979Z,3.20
2019-05-20T20:05:26.995Z,3.20
2019-05-20T20:06:37.007Z,3.30
2019-05-20T20:07:37.018Z,3.20
2019-05-20T20:10:37.054Z,3.45
2019-05-20T20:12:37.096Z,3.40
2019-05-20T20:13:37.150Z,3.20
2019-05-20T20:14:37.161Z,3.30
2019-05-20T20:15:37.168Z,3.50
2019-05-20T20:18:37.202Z,3.70
2019-05-20T20:20:37.255Z,3.40
2019-05-20T20:21:57.270Z,3.60
2019-05-20T20:25:37.348Z,3.50
2019-05-20T20:28:37.413Z,3.80
2019-05-20T20:29:27.402Z,3.20
2019-05-20T20:30:27.408Z,3.80
2019-05-20T20:31:37.458Z,3.50
2019-05-20T20:33:37.517Z,3.60
2019-05-20T20:34:37.532Z,3.70
2019-05-20T20:35:37.530Z,3.70
2019-05-20T20:38:27.620Z,3.30
2019-05-20T20:39:37.726Z,3.40
2019-05-20T20:40:27.730Z,3.80
2019-05-20T20:41:37.712Z,3.70
2019-05-20T20:42:37.717Z,3.30
2019-05-20T20:43:27.728Z,3.55
2019-05-20T20:44:27.744Z,3.80
2019-05-20T20:45:27.764Z,3.35
2019-05-20T20:46:40.475Z,3.30
2019-05-20T20:47:41.500Z,3.60
2019-05-20T20:49:27.817Z,3.60
2019-05-20T20:50:27.834Z,3.60
2019-05-20T20:51:27.893Z,3.50
2019-05-20T20:52:27.899Z,3.50
2019-05-20T20:53:27.915Z,3.60
2019-05-20T20:54:37.946Z,3.30
2019-05-20T20:55:27.961Z,3.50
2019-05-20T20:56:38.013Z,3.70
2019-05-20T20:57:38.051Z,3.30
2019-05-20T20:58:28.109Z,3.70
2019-05-20T21:00:28.193Z,3.80
2019-05-20T21:01:28.215Z,3.60
2019-05-20T21:02:52.093Z,3.30
2019-05-20T21:03:38.242Z,3.20
2019-05-20T21:04:38.266Z,3.80
2019-05-20T21:05:38.326Z,3.60
2019-05-20T21:08:38.316Z,3.80
2019-05-20T21:09:38.349Z,3.20
2019-05-20T21:10:38.380Z,3.50
2019-05-20T21:13:38.445Z,3.20
2019-05-20T21:14:28.469Z,3.30
2019-05-20T21:15:28.514Z,3.10
2019-05-20T21:16:38.546Z,3.30
2019-05-20T21:17:28.547Z,3.70
2019-05-20T21:20:28.647Z,3.50
2019-05-20T21:21:08.674Z,3.85
2019-05-20T21:22:28.681Z,3.80
2019-05-20T21:24:08.694Z,4.20
2019-05-20T21:26:48.726Z,4.35
2019-05-20T21:27:58.753Z,4.10
2019-05-20T21:29:48.768Z,4.40
2019-05-20T21:33:58.895Z,4.40
2019-05-20T21:35:59.022Z,4.30
2019-05-20T21:36:59.042Z,4.20
2019-05-20T21:38:59.082Z,4.20
2019-05-20T21:39:49.121Z,4.30
2019-05-20T21:40:59.184Z,4.30
2019-05-20T21:41:59.192Z,4.30
2019-05-20T21:45:59.223Z,4.20
2019-05-20T21:48:59.308Z,4.40
2019-05-20T21:49:59.312Z,4.20
2019-05-20T21:50:59.332Z,4.20
2019-05-20T21:51:59.348Z,4.00
2019-05-20T21:52:49.346Z,4.10
2019-05-20T21:53:49.421Z,4.10
2019-05-20T21:58:59.468Z,3.80
2019-05-20T21:59:49.559Z,3.80
2019-05-20T22:02:59.649Z,3.90
2019-05-20T22:03:49.686Z,3.95
2019-05-20T22:04:59.700Z,3.60
2019-05-20T22:06:49.726Z,3.95
2019-05-20T22:07:59.746Z,3.90
2019-05-20T22:09:49.891Z,3.80
2019-05-20T22:11:59.809Z,3.85
2019-05-20T22:12:49.830Z,3.90
2019-05-20T22:13:59.839Z,3.90
2019-05-20T22:14:59.845Z,3.70
2019-05-20T22:17:49.899Z,3.60
2019-05-20T22:18:59.960Z,3.80
2019-05-20T22:20:09.971Z,3.50
2019-05-20T22:21:30.079Z,3.80
2019-05-20T22:22:40.062Z,3.70
2019-05-20T22:23:30.040Z,3.65
2019-05-20T22:24:40.063Z,3.40
2019-05-20T22:25:00.065Z,3.60
2019-05-20T22:28:40.148Z,3.70
2019-05-20T22:29:30.160Z,3.60
2019-05-20T22:31:30.235Z,3.50
2019-05-20T22:32:10.250Z,4.00
2019-05-20T22:33:10.255Z,3.70
2019-05-20T22:34:00.265Z,3.60
2019-05-20T22:35:30.305Z,3.70
2019-05-20T22:36:30.316Z,3.40
2019-05-20T22:37:40.412Z,3.20
2019-05-20T22:38:00.409Z,3.50
2019-05-20T22:38:50.568Z,3.30
2019-05-20T22:40:00.510Z,3.20
2019-05-20T22:41:00.515Z,3.60
2019-05-20T22:42:30.583Z,3.40
2019-05-20T22:43:40.626Z,3.50
2019-05-20T22:44:10.627Z,3.30
2019-05-20T22:45:10.633Z,3.10
2019-05-20T22:46:00.645Z,3.10
2019-05-20T22:46:50.656Z,3.40
2019-05-20T22:47:50.709Z,3.20
2019-05-20T22:49:00.715Z,3.30
2019-05-20T22:49:50.774Z,3.30
2019-05-20T22:52:00.810Z,3.30
2019-05-20T22:53:00.853Z,3.20
2019-05-20T22:53:50.878Z,3.10
2019-05-20T22:55:00.879Z,3.10
2019-05-20T22:56:00.971Z,3.10
2019-05-20T22:57:11.131Z,3.40
2019-05-20T22:57:51.114Z,3.30
2019-05-20T22:59:31.247Z,3.30
2019-05-20T23:00:01.231Z,3.50
2019-05-20T23:02:51.344Z,2.90
2019-05-20T23:04:01.429Z,3.00
2019-05-20T23:08:01.458Z,3.20
2019-05-20T23:08:51.438Z,3.10
2019-05-20T23:09:51.458Z,3.05
2019-05-20T23:12:31.563Z,3.20
2019-05-20T23:13:01.641Z,3.40
2019-05-20T23:13:51.606Z,3.00
2019-05-20T23:15:11.601Z,3.00
2019-05-20T23:17:01.625Z,3.10
2019-05-20T23:18:11.677Z,3.10
2019-05-20T23:19:11.675Z,3.00
2019-05-20T23:20:11.709Z,3.10
2019-05-20T23:22:31.733Z,2.80
2019-05-20T23:23:31.761Z,2.90
2019-05-20T23:25:01.761Z,3.10
2019-05-20T23:28:01.862Z,3.00
2019-05-20T23:28:51.883Z,2.90
2019-05-20T23:32:01.913Z,3.10
2019-05-20T23:33:51.958Z,3.00
2019-05-20T23:35:02.176Z,3.00
2019-05-20T23:36:01.977Z,2.70
2019-05-20T23:36:52.030Z,3.00
2019-05-20T23:40:02.072Z,2.90
2019-05-20T23:42:02.095Z,3.00
2019-05-20T23:43:02.106Z,2.60
2019-05-20T23:44:42.162Z,2.70
2019-05-20T23:45:12.182Z,2.90
2019-05-20T23:47:32.455Z,2.60
2019-05-20T23:48:32.428Z,2.65
2019-05-20T23:49:12.444Z,2.80
2019-05-20T23:51:02.470Z,2.70
2019-05-20T23:55:02.526Z,3.00
2019-05-20T23:56:02.574Z,2.95
2019-05-20T23:57:02.637Z,2.80
2019-05-20T23:58:02.606Z,2.80
